createdAt,value
2022-12-26T08:19:11.954Z,11.62
2022-12-26T08:21:14.679Z,11.93
2022-12-26T08:23:17.932Z,12.16
2022-12-26T08:25:22.148Z,12.37
2022-12-26T08:27:25.118Z,12.52
2022-12-26T08:29:28.170Z,12.65
2022-12-26T08:31:30.912Z,12.75
2022-12-26T08:33:33.603Z,12.81
2022-12-26T08:35:38.716Z,12.88
2022-12-26T08:37:41.489Z,12.95
2022-12-26T08:39:44.284Z,13.01
2022-12-26T08:41:46.972Z,13.07
2022-12-26T08:46:13.279Z,13.17
2022-12-26T08:48:16.038Z,13.20
2022-12-26T08:50:19.227Z,13.24
2022-12-26T08:52:23.357Z,13.29
2022-12-26T08:54:26.119Z,13.33
2022-12-26T08:56:29.000Z,13.37
2022-12-26T08:58:32.036Z,13.39
2022-12-26T09:00:34.801Z,13.41
2022-12-26T09:02:37.681Z,13.40
2022-12-26T09:04:40.478Z,13.39
2022-12-26T09:06:44.235Z,13.42
2022-12-26T09:08:48.624Z,13.45
2022-12-26T09:10:51.271Z,13.47
2022-12-26T09:12:53.948Z,13.47
2022-12-26T09:14:56.601Z,13.48
2022-12-26T09:16:59.351Z,13.47
2022-12-26T09:19:03.209Z,13.49
2022-12-26T09:21:07.845Z,13.50
2022-12-26T09:23:10.825Z,13.51
2022-12-26T09:25:14.802Z,13.52
2022-12-26T09:27:17.459Z,13.54
2022-12-26T09:29:20.157Z,13.50
2022-12-26T09:31:25.216Z,13.50
2022-12-26T09:33:27.967Z,13.50
2022-12-26T09:35:30.622Z,13.47
2022-12-26T09:37:33.305Z,13.47
2022-12-26T09:39:36.020Z,13.47
2022-12-26T09:42:03.204Z,13.48
2022-12-26T09:44:13.172Z,13.47
2022-12-26T09:46:23.714Z,13.47
2022-12-26T09:48:32.697Z,13.47
2022-12-26T09:50:42.974Z,13.47
2022-12-26T09:52:50.639Z,13.47
2022-12-26T09:54:57.461Z,13.46
2022-12-26T09:57:04.643Z,13.46
2022-12-26T09:59:15.585Z,13.48
2022-12-26T10:01:20.893Z,13.48
2022-12-26T10:03:24.955Z,13.49
2022-12-26T10:05:35.055Z,13.50
2022-12-26T10:07:43.504Z,13.51
2022-12-26T10:09:56.288Z,13.52
2022-12-26T10:12:16.619Z,13.54
2022-12-26T10:14:38.982Z,13.54
2022-12-26T10:16:51.860Z,13.55
2022-12-26T10:19:01.929Z,13.57
2022-12-26T10:21:19.250Z,13.58
2022-12-26T10:23:39.633Z,13.57
2022-12-26T10:25:47.046Z,13.61
2022-12-26T10:27:52.949Z,13.61
2022-12-26T10:30:00.040Z,13.63
2022-12-26T10:32:07.004Z,13.62
2022-12-26T10:34:26.188Z,13.63
2022-12-26T10:36:34.256Z,13.63
2022-12-26T10:38:40.987Z,13.64
2022-12-26T10:40:47.886Z,13.64
2022-12-26T10:42:54.932Z,13.66
2022-12-26T10:44:58.488Z,13.66
2022-12-26T10:47:23.040Z,13.67
2022-12-26T10:49:27.343Z,13.67
2022-12-26T10:51:30.585Z,13.65
2022-12-26T10:53:44.146Z,13.66
2022-12-26T10:55:46.864Z,13.67
2022-12-26T10:57:55.933Z,13.68
2022-12-26T10:59:59.572Z,13.68
2022-12-26T11:02:14.521Z,13.67
2022-12-26T11:06:44.853Z,13.66
2022-12-26T11:08:50.125Z,13.65
2022-12-26T11:11:03.848Z,13.64
2022-12-26T11:13:18.894Z,13.63
2022-12-26T11:15:27.815Z,13.63
2022-12-26T11:17:32.597Z,13.61
2022-12-26T11:19:37.470Z,13.60
2022-12-26T11:21:40.127Z,13.58
2022-12-26T11:23:42.877Z,13.57
2022-12-26T11:25:50.803Z,13.58
2022-12-26T11:27:55.893Z,13.57
2022-12-26T11:30:18.144Z,13.56
2022-12-26T11:32:21.656Z,13.55
2022-12-26T11:34:34.614Z,13.55
2022-12-26T11:36:40.397Z,13.59
2022-12-26T11:38:52.447Z,13.62
2022-12-26T11:41:09.019Z,13.63
2022-12-26T11:43:25.545Z,13.61
2022-12-26T11:45:38.984Z,13.61
2022-12-26T11:47:46.736Z,13.62
2022-12-26T11:49:59.061Z,13.61
2022-12-26T11:52:04.425Z,13.62
2022-12-26T11:54:23.063Z,13.65
2022-12-26T11:56:27.026Z,13.65
2022-12-26T11:58:31.655Z,13.65
2022-12-26T12:00:38.005Z,13.66
2022-12-26T12:02:42.199Z,13.66
2022-12-26T12:04:46.329Z,13.65
2022-12-26T12:07:01.876Z,13.67
2022-12-26T12:09:14.191Z,13.67
2022-12-26T12:11:26.221Z,13.69
2022-12-26T12:13:55.719Z,13.69
2022-12-26T12:16:12.722Z,13.69
2022-12-26T12:18:21.493Z,13.67
2022-12-26T12:20:33.388Z,13.67
2022-12-26T12:22:54.912Z,13.69
2022-12-26T12:25:33.493Z,13.71
2022-12-26T12:27:39.934Z,13.74
2022-12-26T12:30:01.627Z,13.73
2022-12-26T12:32:17.955Z,13.75
2022-12-26T12:34:31.876Z,13.76
2022-12-26T12:36:40.098Z,13.76
2022-12-26T12:38:56.750Z,13.77
2022-12-26T12:41:12.303Z,13.76
2022-12-26T12:43:20.889Z,13.75
2022-12-26T12:45:32.318Z,13.76
2022-12-26T12:47:47.245Z,13.75
2022-12-26T12:49:59.596Z,13.76
2022-12-26T12:52:13.245Z,13.76
2022-12-26T12:54:40.847Z,13.78
2022-12-26T12:56:50.649Z,13.78
2022-12-26T12:59:02.541Z,13.79
2022-12-26T13:01:10.880Z,13.78
2022-12-26T13:03:25.310Z,13.79
2022-12-26T13:05:47.540Z,13.82
2022-12-26T13:07:55.736Z,13.82
2022-12-26T13:10:01.468Z,13.83
2022-12-26T13:12:07.596Z,13.85
2022-12-26T13:14:17.225Z,13.84
2022-12-26T13:16:24.361Z,13.83
2022-12-26T13:18:34.582Z,13.84
2022-12-26T13:20:42.137Z,13.85
2022-12-26T13:23:05.983Z,13.85
2022-12-26T13:25:12.535Z,13.85
2022-12-26T13:27:19.546Z,13.87
2022-12-26T13:29:35.333Z,13.87
2022-12-26T13:31:39.870Z,13.87
2022-12-26T13:33:44.796Z,13.81
2022-12-26T13:35:53.602Z,13.78
2022-12-26T13:37:58.915Z,13.73
2022-12-26T13:40:03.607Z,13.70
2022-12-26T13:42:50.713Z,13.66
2022-12-26T13:44:53.962Z,13.64
2022-12-26T13:46:58.612Z,13.58
2022-12-26T13:49:03.070Z,13.61
2022-12-26T13:51:27.069Z,13.62
2022-12-26T13:53:32.519Z,13.65
2022-12-26T13:55:45.142Z,13.67
2022-12-26T13:57:47.971Z,13.67
2022-12-26T14:00:06.222Z,13.67
2022-12-26T14:02:49.829Z,13.68
2022-12-26T14:05:02.719Z,13.71
2022-12-26T14:07:21.595Z,13.72
2022-12-26T14:09:39.900Z,13.73
2022-12-26T14:11:55.355Z,13.74
2022-12-26T14:14:10.394Z,13.75
2022-12-26T14:16:21.655Z,13.75
2022-12-26T14:18:42.414Z,13.74
2022-12-26T14:20:56.027Z,13.69
2022-12-26T14:23:11.344Z,13.64
2022-12-26T14:25:22.911Z,13.59
2022-12-26T14:27:36.384Z,13.59
2022-12-26T14:29:47.197Z,13.60
2022-12-26T14:32:01.729Z,13.57
2022-12-26T14:34:24.902Z,13.59
2022-12-26T14:36:41.324Z,13.60
2022-12-26T14:38:50.887Z,13.61
2022-12-26T14:41:03.937Z,13.61
2022-12-26T14:43:13.704Z,13.65
2022-12-26T14:45:39.907Z,13.65
2022-12-26T14:47:45.610Z,13.65
2022-12-26T14:49:48.970Z,13.65
2022-12-26T14:51:53.180Z,13.66
2022-12-26T14:54:22.011Z,13.67
2022-12-26T14:56:37.725Z,13.68
2022-12-26T14:58:45.057Z,13.68
2022-12-26T15:00:49.118Z,13.72
2022-12-26T15:03:12.412Z,13.68
2022-12-26T15:05:18.823Z,13.73
2022-12-26T15:08:09.227Z,13.74
2022-12-26T15:10:50.840Z,13.74
2022-12-26T15:13:19.104Z,13.75
2022-12-26T15:15:34.202Z,13.75
2022-12-26T15:17:47.447Z,13.77
2022-12-26T15:20:27.927Z,13.77
2022-12-26T15:23:10.543Z,13.78
2022-12-26T15:25:52.401Z,13.78
2022-12-26T15:28:26.077Z,13.80
2022-12-26T15:30:38.505Z,13.80
2022-12-26T15:32:47.544Z,13.80
2022-12-26T15:35:02.601Z,13.81
2022-12-26T15:37:15.112Z,13.83
2022-12-26T15:39:27.312Z,13.84
2022-12-26T15:41:40.690Z,13.83
2022-12-26T15:43:54.351Z,13.84
2022-12-26T15:46:07.121Z,13.86
2022-12-26T15:48:20.764Z,13.85
2022-12-26T15:50:28.659Z,13.84
2022-12-26T15:52:44.547Z,13.87
2022-12-26T15:55:06.186Z,13.86
2022-12-26T15:57:16.021Z,13.87
2022-12-26T15:59:41.665Z,13.86
2022-12-26T16:01:52.150Z,13.89
2022-12-26T16:03:57.788Z,13.89
2022-12-26T16:06:15.879Z,13.89
2022-12-26T16:08:49.243Z,13.91
2022-12-26T16:11:09.446Z,13.91
2022-12-26T16:13:23.184Z,13.91
2022-12-26T16:15:26.419Z,13.91
2022-12-26T16:17:29.913Z,13.91
2022-12-26T16:19:32.857Z,13.90
2022-12-26T16:21:53.324Z,13.89
2022-12-26T16:23:57.157Z,13.93
2022-12-26T16:26:05.271Z,13.92
2022-12-26T16:28:08.059Z,13.92
2022-12-26T16:30:19.477Z,13.90
2022-12-26T16:32:26.427Z,13.92
2022-12-26T16:34:33.046Z,13.93
2022-12-26T16:36:36.647Z,13.91
2022-12-26T16:38:39.431Z,13.91
2022-12-26T16:40:44.967Z,13.92
2022-12-26T16:43:15.242Z,13.91
2022-12-26T16:45:22.743Z,13.88
2022-12-26T16:47:26.227Z,13.91
2022-12-26T16:49:33.139Z,13.91
2022-12-26T16:51:47.196Z,13.92
2022-12-26T16:53:49.826Z,13.94
2022-12-26T16:55:56.329Z,13.93
2022-12-26T16:58:04.028Z,13.95
2022-12-26T17:00:07.781Z,13.94
2022-12-26T17:02:19.427Z,13.94
2022-12-26T17:04:25.027Z,13.95
2022-12-26T17:06:31.698Z,13.95
2022-12-26T17:08:34.791Z,13.95
2022-12-26T17:10:38.875Z,13.94
2022-12-26T17:12:41.642Z,13.93
2022-12-26T17:14:49.990Z,13.93
2022-12-26T17:16:59.371Z,13.92
2022-12-26T17:19:12.281Z,13.92
2022-12-26T17:21:30.305Z,13.91
2022-12-26T17:23:36.964Z,13.90
2022-12-26T17:25:40.263Z,13.90
2022-12-26T17:27:42.908Z,13.90
2022-12-26T17:29:52.893Z,13.90
2022-12-26T17:31:56.633Z,13.89
2022-12-26T17:34:00.532Z,13.92
2022-12-26T17:37:08.212Z,13.92
2022-12-26T17:38:30.362Z,13.91
2022-12-26T17:40:35.697Z,13.89
2022-12-26T17:42:45.461Z,13.90
2022-12-26T17:44:48.389Z,13.89
2022-12-26T17:46:52.529Z,13.88
2022-12-26T17:48:55.420Z,13.85
2022-12-26T17:51:00.676Z,13.84
2022-12-26T17:53:05.673Z,13.82
2022-12-26T17:55:22.812Z,13.80
2022-12-26T17:57:28.149Z,13.79
2022-12-26T17:59:31.050Z,13.78
2022-12-26T18:01:33.904Z,13.79
2022-12-26T18:03:38.431Z,13.80
2022-12-26T18:05:41.966Z,13.79
2022-12-26T18:07:44.980Z,13.80
2022-12-26T18:09:48.499Z,13.79
2022-12-26T18:11:51.272Z,13.81
2022-12-26T18:13:53.867Z,13.82
2022-12-26T18:15:57.540Z,13.81
2022-12-26T18:18:00.332Z,13.79
2022-12-26T18:20:06.190Z,13.78
2022-12-26T18:22:13.994Z,13.76
2022-12-26T18:24:16.730Z,13.75
2022-12-26T18:26:25.285Z,13.74
2022-12-26T18:28:28.996Z,13.72
2022-12-26T18:30:31.879Z,13.74
2022-12-26T18:32:35.051Z,13.76
2022-12-26T18:34:37.718Z,13.77
2022-12-26T18:36:43.231Z,13.74
2022-12-26T18:38:46.285Z,13.72
2022-12-26T18:40:50.909Z,13.71
2022-12-26T18:42:53.628Z,13.71
2022-12-26T18:44:56.318Z,13.65
2022-12-26T18:46:58.976Z,13.57
2022-12-26T18:49:01.755Z,13.56
2022-12-26T18:51:06.132Z,13.61
2022-12-26T18:53:10.135Z,13.66
2022-12-26T18:55:12.879Z,13.69
2022-12-26T18:57:18.901Z,13.69
2022-12-26T18:59:21.398Z,13.72
2022-12-26T19:01:24.350Z,13.73
2022-12-26T19:03:27.207Z,13.75
2022-12-26T19:05:32.789Z,13.73
2022-12-26T19:07:35.482Z,13.75
2022-12-26T19:09:42.878Z,13.74
2022-12-26T19:11:45.588Z,13.73
2022-12-26T19:13:48.642Z,13.77
2022-12-26T19:15:51.344Z,13.77
2022-12-26T19:17:53.988Z,13.77
2022-12-26T19:19:56.701Z,13.78
2022-12-26T19:21:59.555Z,13.78
2022-12-26T19:24:02.491Z,13.76
2022-12-26T19:26:11.756Z,13.75
2022-12-26T19:28:15.431Z,13.76
2022-12-26T19:30:19.572Z,13.79
2022-12-26T19:32:22.253Z,13.78
2022-12-26T19:34:25.465Z,13.78
2022-12-26T19:36:28.300Z,13.80
2022-12-26T19:38:31.563Z,13.78
2022-12-26T19:40:34.353Z,13.79
2022-12-26T19:42:38.686Z,13.79
2022-12-26T19:44:41.540Z,13.80
2022-12-26T19:46:44.351Z,13.80
2022-12-26T19:48:47.180Z,13.81
2022-12-26T19:50:49.826Z,13.82
2022-12-26T19:52:52.549Z,13.83
2022-12-26T19:54:55.200Z,13.84
2022-12-26T19:56:57.843Z,13.84
2022-12-26T19:59:02.008Z,13.82
2022-12-26T20:01:09.074Z,13.83
2022-12-26T20:03:12.204Z,13.84
2022-12-26T20:05:14.919Z,13.84
2022-12-26T20:07:17.773Z,13.83
2022-12-26T20:09:20.548Z,13.85
2022-12-26T20:11:25.876Z,13.85
2022-12-26T20:13:28.670Z,13.84
2022-12-26T20:15:33.502Z,13.84
2022-12-26T20:17:40.112Z,13.84
2022-12-26T20:19:43.832Z,13.83
2022-12-26T20:21:46.630Z,13.84
2022-12-26T20:23:49.530Z,13.82
2022-12-26T20:25:52.342Z,13.82
2022-12-26T20:27:55.118Z,13.86
2022-12-26T20:29:57.995Z,13.86
2022-12-26T20:32:02.282Z,13.88
2022-12-26T20:34:05.180Z,13.88
2022-12-26T20:36:10.194Z,13.89
2022-12-26T20:38:12.895Z,13.89
2022-12-26T20:40:15.734Z,13.89
2022-12-26T20:42:19.476Z,13.89
2022-12-26T20:44:22.426Z,13.91
2022-12-26T20:46:27.919Z,13.91
2022-12-26T20:48:32.053Z,13.92
2022-12-26T20:50:34.755Z,13.91
2022-12-26T20:52:37.637Z,13.89
2022-12-26T20:54:40.385Z,13.88
2022-12-26T20:56:44.226Z,13.89
2022-12-26T20:58:47.407Z,13.90
2022-12-26T21:00:56.913Z,13.90
2022-12-26T21:03:00.018Z,13.88
2022-12-26T21:05:04.294Z,13.91
2022-12-26T21:07:07.097Z,13.91
2022-12-26T21:09:09.728Z,13.92
2022-12-26T21:11:14.828Z,13.92
2022-12-26T21:13:17.672Z,13.94
2022-12-26T21:15:20.314Z,13.94
2022-12-26T21:17:23.145Z,13.93
2022-12-26T21:19:28.326Z,13.94
2022-12-26T21:21:34.575Z,13.93
2022-12-26T21:23:37.641Z,13.92
2022-12-26T21:25:40.248Z,13.92
2022-12-26T21:27:45.548Z,13.92
2022-12-26T21:29:50.203Z,13.92
2022-12-26T21:31:53.704Z,13.94
2022-12-26T21:33:56.866Z,13.94
2022-12-26T21:35:59.872Z,13.92
2022-12-26T21:38:03.120Z,13.94
2022-12-26T21:40:06.937Z,13.93
2022-12-26T21:42:12.290Z,13.92
2022-12-26T21:44:15.012Z,13.89
2022-12-26T21:46:19.790Z,13.88
2022-12-26T21:48:23.092Z,13.88
2022-12-26T21:50:25.723Z,13.89
2022-12-26T21:52:28.748Z,13.87
2022-12-26T21:54:50.222Z,13.86
2022-12-26T21:56:52.945Z,13.86
2022-12-26T21:59:13.370Z,13.86
2022-12-26T22:01:18.127Z,13.84
2022-12-26T22:03:38.494Z,13.83
2022-12-26T22:05:43.014Z,13.81
2022-12-26T22:07:46.153Z,13.81
2022-12-26T22:09:50.211Z,13.80
2022-12-26T22:12:10.786Z,13.80
2022-12-26T22:14:13.940Z,13.76
2022-12-26T22:16:16.726Z,13.79
2022-12-26T22:18:19.549Z,13.81
2022-12-26T22:20:22.861Z,13.82
2022-12-26T22:22:25.548Z,13.82
2022-12-26T22:24:28.307Z,13.83
2022-12-26T22:26:33.291Z,13.83
2022-12-26T22:28:36.165Z,13.84
2022-12-26T22:30:38.875Z,13.84
2022-12-26T22:32:41.609Z,13.84
2022-12-26T22:34:44.256Z,13.84
2022-12-26T22:36:46.897Z,13.82
2022-12-26T22:38:49.794Z,13.81
2022-12-26T22:40:57.311Z,13.80
2022-12-26T22:43:01.458Z,13.80
2022-12-26T22:45:04.481Z,13.80
2022-12-26T22:47:07.238Z,13.79
2022-12-26T22:49:10.227Z,13.80
2022-12-26T22:51:17.926Z,13.81
2022-12-26T22:53:22.765Z,13.80
2022-12-26T22:55:25.438Z,13.81
2022-12-26T22:57:28.062Z,13.82
2022-12-26T23:00:06.316Z,13.82
2022-12-26T23:01:54.814Z,13.82
2022-12-26T23:03:58.016Z,13.82
2022-12-26T23:06:01.025Z,13.80
2022-12-26T23:08:04.849Z,13.78
2022-12-26T23:10:09.773Z,13.80
2022-12-26T23:12:30.955Z,13.80
2022-12-26T23:14:35.693Z,13.81
2022-12-26T23:16:43.400Z,13.79
2022-12-26T23:19:08.609Z,13.78
2022-12-26T23:21:39.696Z,13.76
2022-12-26T23:23:42.946Z,13.76
